createdAt,value
2022-11-07T00:02:22.421Z,98561.50
2022-11-07T00:04:51.152Z,98555.53
2022-11-07T00:07:19.741Z,98549.75
2022-11-07T00:09:48.323Z,98552.44
2022-11-07T00:12:16.983Z,98553.81
2022-11-07T00:14:45.607Z,98561.16
2022-11-07T00:17:15.602Z,98570.09
2022-11-07T00:19:44.201Z,98571.34
2022-11-07T00:22:12.875Z,98572.91
2022-11-07T00:24:41.989Z,98568.84
2022-11-07T00:27:11.795Z,98572.06
2022-11-07T00:29:41.140Z,98587.63
2022-11-07T00:32:09.757Z,98581.03
2022-11-07T00:34:39.794Z,98587.78
2022-11-07T00:37:08.488Z,98588.34
2022-11-07T00:39:37.119Z,98600.63
2022-11-07T00:42:06.035Z,98596.72
2022-11-07T00:44:35.033Z,98597.97
2022-11-07T00:47:03.650Z,98584.88
2022-11-07T00:49:32.382Z,98593.25
2022-11-07T00:52:02.414Z,98596.50
2022-11-07T00:54:31.093Z,98600.78
2022-11-07T00:56:59.669Z,98599.75
2022-11-07T00:59:28.312Z,98592.34
2022-11-07T01:01:57.065Z,98587.03
2022-11-07T01:04:43.359Z,98598.13
2022-11-07T01:07:13.451Z,98601.38
2022-11-07T01:09:42.144Z,98603.03
2022-11-07T01:12:10.768Z,98601.38
2022-11-07T01:14:39.457Z,98593.38
2022-11-07T01:17:08.137Z,98584.66
2022-11-07T01:19:36.901Z,98583.03
2022-11-07T01:22:05.593Z,98579.31
2022-11-07T01:24:35.862Z,98572.75
2022-11-07T01:27:04.864Z,98586.28
2022-11-07T01:29:33.446Z,98591.75
2022-11-07T01:32:02.156Z,98589.09
2022-11-07T01:34:30.819Z,98588.03
2022-11-07T01:36:59.469Z,98575.03
2022-11-07T01:39:28.166Z,98574.00
2022-11-07T01:41:58.374Z,98572.94
2022-11-07T01:44:55.668Z,98552.69
2022-11-07T01:47:30.225Z,98547.34
2022-11-07T01:50:00.338Z,98546.53
2022-11-07T01:52:35.263Z,98556.38
2022-11-07T01:55:09.868Z,98537.16
2022-11-07T01:57:46.361Z,98555.19
2022-11-07T02:00:20.080Z,98559.50
2022-11-07T02:02:56.777Z,98565.03
2022-11-07T02:05:32.076Z,98567.78
2022-11-07T02:08:02.211Z,98567.44
2022-11-07T02:10:31.507Z,98566.47
2022-11-07T02:13:03.618Z,98571.06
2022-11-07T02:15:33.793Z,98572.88
2022-11-07T02:18:03.726Z,98576.25
2022-11-07T02:20:32.449Z,98576.97
2022-11-07T02:23:08.603Z,98580.59
2022-11-07T02:25:39.446Z,98585.53
2022-11-07T02:28:11.477Z,98583.31
2022-11-07T02:30:40.145Z,98582.72
2022-11-07T02:33:19.382Z,98588.09
2022-11-07T02:35:51.337Z,98578.28
2022-11-07T02:38:24.955Z,98577.09
2022-11-07T02:41:01.513Z,98574.88
2022-11-07T02:43:33.134Z,98574.28
2022-11-07T02:46:07.108Z,98574.69
2022-11-07T02:48:45.174Z,98576.19
2022-11-07T02:51:13.944Z,98571.91
2022-11-07T02:53:42.689Z,98570.25
2022-11-07T02:56:12.682Z,98572.09
2022-11-07T02:58:41.442Z,98570.53
2022-11-07T03:01:10.397Z,98592.88
2022-11-07T03:03:42.566Z,98588.59
2022-11-07T03:06:14.919Z,98581.25
2022-11-07T03:08:44.346Z,98583.50
2022-11-07T03:11:19.889Z,98583.09
2022-11-07T03:13:50.048Z,98584.78
2022-11-07T03:16:20.850Z,98596.66
2022-11-07T03:18:49.815Z,98592.16
2022-11-07T03:21:18.513Z,98605.66
2022-11-07T03:23:47.139Z,98607.75
2022-11-07T03:26:17.534Z,98612.31
2022-11-07T03:28:46.132Z,98611.22
2022-11-07T03:31:14.752Z,98619.84
2022-11-07T03:33:43.416Z,98625.78
2022-11-07T03:36:12.557Z,98633.75
2022-11-07T03:38:41.274Z,98632.75
2022-11-07T03:41:10.038Z,98639.75
2022-11-07T03:43:40.048Z,98648.31
2022-11-07T03:46:08.654Z,98649.00
2022-11-07T03:48:37.307Z,98649.78
2022-11-07T03:51:06.354Z,98648.97
2022-11-07T03:53:34.980Z,98654.75
2022-11-07T03:56:10.629Z,98667.63
2022-11-07T03:58:40.874Z,98671.50
2022-11-07T04:01:11.753Z,98676.63
2022-11-07T04:03:40.753Z,98682.19
2022-11-07T04:06:09.776Z,98686.03
2022-11-07T04:08:38.490Z,98695.50
2022-11-07T04:11:07.702Z,98697.53
2022-11-07T04:13:53.809Z,98688.69
2022-11-07T04:16:41.292Z,98688.53
2022-11-07T04:19:10.260Z,98688.53
2022-11-07T04:21:39.276Z,98701.63
2022-11-07T04:24:08.393Z,98681.38
2022-11-07T04:26:54.411Z,98686.31
2022-11-07T04:29:23.266Z,98697.97
2022-11-07T04:31:53.393Z,98688.59
2022-11-07T04:34:22.125Z,98691.03
2022-11-07T04:36:50.836Z,98697.16
2022-11-07T04:39:19.495Z,98702.06
2022-11-07T04:41:48.064Z,98703.69
2022-11-07T04:44:16.738Z,98716.97
2022-11-07T04:46:45.381Z,98716.78
2022-11-07T04:49:16.194Z,98724.97
2022-11-07T04:51:45.991Z,98720.25
2022-11-07T04:54:16.174Z,98722.28
2022-11-07T04:56:44.872Z,98725.38
2022-11-07T04:59:13.536Z,98724.56
2022-11-07T05:01:42.246Z,98728.59
2022-11-07T05:04:10.954Z,98716.53
2022-11-07T05:06:41.129Z,98718.78
2022-11-07T05:09:10.827Z,98726.09
2022-11-07T05:11:39.490Z,98717.72
2022-11-07T05:14:08.622Z,98714.00
2022-11-07T05:16:39.038Z,98729.13
2022-11-07T05:19:07.982Z,98727.72
2022-11-07T05:21:36.961Z,98739.22
2022-11-07T05:24:06.970Z,98733.06
2022-11-07T05:26:35.796Z,98735.50
2022-11-07T05:29:15.639Z,98732.22
2022-11-07T05:31:45.215Z,98737.34
2022-11-07T05:34:14.859Z,98737.53
2022-11-07T05:36:44.357Z,98741.84
2022-11-07T05:39:16.291Z,98740.00
2022-11-07T05:41:56.384Z,98751.06
2022-11-07T05:44:25.540Z,98744.91
2022-11-07T05:46:54.804Z,98739.59
2022-11-07T05:49:24.148Z,98744.94
2022-11-07T05:51:53.535Z,98744.94
2022-11-07T05:54:24.693Z,98753.13
2022-11-07T05:56:58.443Z,98757.22
2022-11-07T05:59:27.415Z,98754.38
2022-11-07T06:01:56.160Z,98765.03
2022-11-07T06:04:25.030Z,98768.72
2022-11-07T06:06:53.659Z,98765.47
2022-11-07T06:09:23.620Z,98768.34
2022-11-07T06:11:52.286Z,98778.53
2022-11-07T06:14:20.973Z,98778.75
2022-11-07T06:16:49.531Z,98779.56
2022-11-07T06:19:18.291Z,98778.56
2022-11-07T06:21:46.857Z,98778.13
2022-11-07T06:24:15.702Z,98778.56
2022-11-07T06:26:45.778Z,98776.91
2022-11-07T06:29:14.372Z,98775.28
2022-11-07T06:31:43.058Z,98786.53
2022-11-07T06:34:11.644Z,98783.66
2022-11-07T06:36:40.225Z,98776.91
2022-11-07T06:39:08.862Z,98785.50
2022-11-07T06:41:37.486Z,98785.09
2022-11-07T06:44:07.575Z,98794.91
2022-11-07T06:46:36.135Z,98782.44
2022-11-07T06:49:04.991Z,98781.41
2022-11-07T06:51:33.801Z,98796.72
2022-11-07T06:54:02.593Z,98792.41
2022-11-07T06:56:31.249Z,98787.91
2022-11-07T06:59:00.027Z,98795.88
2022-11-07T07:01:30.189Z,98795.03
2022-11-07T07:04:01.088Z,98785.59
2022-11-07T07:06:29.783Z,98794.41
2022-11-07T07:08:59.420Z,98801.53
2022-11-07T07:11:28.034Z,98803.97
2022-11-07T07:14:02.004Z,98808.66
2022-11-07T07:16:32.758Z,98806.59
2022-11-07T07:19:01.409Z,98812.13
2022-11-07T07:21:30.119Z,98808.81
2022-11-07T07:23:58.687Z,98813.91
2022-11-07T07:26:28.492Z,98821.88
2022-11-07T07:28:57.113Z,98827.38
2022-11-07T07:31:31.912Z,98823.63
2022-11-07T07:34:01.937Z,98820.34
2022-11-07T07:36:30.537Z,98830.72
2022-11-07T07:38:59.123Z,98826.41
2022-11-07T07:41:27.705Z,98827.16
2022-11-07T07:43:59.698Z,98829.56
2022-11-07T07:46:31.625Z,98829.72
2022-11-07T07:49:01.981Z,98819.19
2022-11-07T07:56:52.088Z,98817.50
2022-11-07T07:59:20.792Z,98813.97
2022-11-07T08:01:55.204Z,98811.19
2022-11-07T08:04:25.505Z,98819.72
2022-11-07T08:06:54.134Z,98816.75
2022-11-07T08:09:22.832Z,98813.59
2022-11-07T08:11:52.900Z,98821.22
2022-11-07T08:14:22.625Z,98815.38
2022-11-07T08:16:51.250Z,98821.78
2022-11-07T08:19:19.835Z,98823.38
2022-11-07T08:21:48.386Z,98819.59
2022-11-07T08:24:17.029Z,98828.97
2022-11-07T08:26:46.192Z,98839.91
2022-11-07T08:29:16.258Z,98839.66
2022-11-07T08:31:44.912Z,98829.59
2022-11-07T08:34:13.533Z,98843.28
2022-11-07T08:36:42.256Z,98844.94
2022-11-07T08:39:10.916Z,98847.38
2022-11-07T08:41:39.587Z,98834.53
2022-11-07T08:44:09.872Z,98841.53
2022-11-07T08:46:39.892Z,98831.38
2022-11-07T08:49:08.555Z,98837.09
2022-11-07T08:51:37.294Z,98823.31
2022-11-07T08:54:06.376Z,98832.75
2022-11-07T08:56:35.248Z,98837.44
2022-11-07T08:59:03.855Z,98830.22
2022-11-07T09:01:32.625Z,98831.50
2022-11-07T09:04:02.873Z,98829.53
2022-11-07T09:06:32.979Z,98835.34
2022-11-07T09:09:01.815Z,98829.31
2022-11-07T09:11:30.618Z,98834.28
2022-11-07T09:19:02.361Z,98835.34
2022-11-07T09:21:29.675Z,98834.41
2022-11-07T09:23:56.997Z,98834.41
2022-11-07T09:26:24.274Z,98826.97
2022-11-07T09:28:54.110Z,98841.25
2022-11-07T09:31:23.617Z,98834.66
2022-11-07T09:33:51.110Z,98840.81
2022-11-07T12:40:11.495Z,98818.59
2022-11-07T12:44:20.846Z,98818.25
2022-11-07T12:46:56.003Z,98819.88
2022-11-07T12:50:02.967Z,98818.91
2022-11-07T12:52:50.188Z,98812.25
2022-11-07T12:55:25.737Z,98820.88
2022-11-07T12:57:56.216Z,98820.19
2022-11-07T13:00:30.306Z,98826.63
2022-11-07T13:03:38.183Z,98816.22
2022-11-07T13:06:19.601Z,98816.56
2022-11-07T13:09:03.168Z,98819.53
2022-11-07T13:11:46.043Z,98826.22
2022-11-07T13:14:27.402Z,98825.16
2022-11-07T13:17:15.208Z,98830.63
2022-11-07T13:19:46.199Z,98836.22
2022-11-07T13:22:33.551Z,98833.03
2022-11-07T13:25:28.769Z,98837.69
2022-11-07T13:28:26.737Z,98835.31
2022-11-07T13:31:06.582Z,98837.56
2022-11-07T13:33:38.211Z,98839.19
2022-11-07T13:36:15.757Z,98836.75
2022-11-07T13:38:52.729Z,98824.41
2022-11-07T13:41:22.231Z,98832.75
2022-11-07T13:43:58.919Z,98826.84
2022-11-07T13:46:33.297Z,98822.53
2022-11-07T13:49:11.740Z,98836.03
2022-11-07T13:51:45.773Z,98824.78
2022-11-07T13:54:27.241Z,98828.53
2022-11-07T13:57:01.185Z,98830.06
2022-11-07T13:59:45.539Z,98827.66
2022-11-07T14:02:21.963Z,98831.31
2022-11-07T14:05:15.182Z,98837.16
2022-11-07T14:07:54.720Z,98835.81
2022-11-07T14:10:30.179Z,98845.41
2022-11-07T14:13:07.731Z,98840.53
2022-11-07T14:15:44.411Z,98846.38
2022-11-07T14:18:17.230Z,98845.56
2022-11-07T14:20:53.783Z,98842.88
2022-11-07T14:23:26.056Z,98850.63
2022-11-07T14:26:01.009Z,98846.16
2022-11-07T14:28:36.941Z,98841.59
2022-11-07T14:31:09.179Z,98845.09
2022-11-07T14:33:39.081Z,98864.94
2022-11-07T14:36:13.369Z,98856.63
2022-11-07T14:38:49.480Z,98856.09
2022-11-07T14:41:20.068Z,98851.75
2022-11-07T14:43:50.759Z,98845.28
2022-11-07T14:46:24.267Z,98845.28
2022-11-07T14:48:54.909Z,98847.38
2022-11-07T14:51:30.359Z,98846.22
2022-11-07T14:54:06.022Z,98845.88
2022-11-07T14:56:40.319Z,98847.19
2022-11-07T14:59:14.118Z,98855.47
2022-11-07T15:01:56.561Z,98850.38
2022-11-07T15:04:31.599Z,98849.00
2022-11-07T15:07:12.438Z,98842.00
2022-11-07T15:09:42.361Z,98841.66
2022-11-07T15:12:21.217Z,98837.63
2022-11-07T15:15:04.365Z,98835.66
2022-11-07T15:17:40.076Z,98833.88
2022-11-07T15:20:21.329Z,98830.94
2022-11-07T15:22:51.557Z,98842.47
2022-11-07T15:25:30.406Z,98835.19
2022-11-07T15:27:59.347Z,98835.31
2022-11-07T15:30:33.359Z,98843.16
2022-11-07T15:33:02.305Z,98837.28
2022-11-07T15:35:44.110Z,98842.63
2022-11-07T15:38:22.148Z,98838.09
2022-11-07T15:40:51.902Z,98836.47
2022-11-07T15:43:22.081Z,98843.94
2022-11-07T15:45:53.871Z,98846.03
2022-11-07T15:48:28.376Z,98836.63
2022-11-07T15:50:57.888Z,98840.63
2022-11-07T15:53:33.359Z,98838.41
2022-11-07T15:56:08.327Z,98838.91
2022-11-07T15:58:37.052Z,98836.94
2022-11-07T16:01:05.940Z,98839.53
2022-11-07T16:03:34.585Z,98837.56
2022-11-07T16:06:04.034Z,98841.81
2022-11-07T16:08:35.698Z,98840.66
2022-11-07T16:11:07.712Z,98840.09
2022-11-07T16:13:36.414Z,98845.09
2022-11-07T16:16:06.957Z,98841.53
2022-11-07T16:18:42.177Z,98855.72
2022-11-07T16:21:10.788Z,98855.41
2022-11-07T16:23:42.338Z,98861.22
2022-11-07T16:26:14.664Z,98859.03
2022-11-07T16:28:45.329Z,98856.81
2022-11-07T16:31:14.021Z,98866.38
2022-11-07T16:33:42.721Z,98866.38
2022-11-07T16:36:24.396Z,98865.34
2022-11-07T16:38:56.502Z,98862.56
2022-11-07T16:41:25.345Z,98869.81
2022-11-07T16:43:54.108Z,98871.06
2022-11-07T16:46:26.540Z,98874.34
2022-11-07T16:49:03.223Z,98871.66
2022-11-07T16:51:33.166Z,98877.84
2022-11-07T16:54:03.857Z,98872.69
2022-11-07T16:56:36.381Z,98872.94
2022-11-07T16:59:08.412Z,98880.16
2022-11-07T17:01:38.259Z,98876.44
2022-11-07T17:04:07.628Z,98878.28
2022-11-07T17:06:37.116Z,98883.53
2022-11-07T17:09:13.305Z,98882.28
2022-11-07T17:11:42.553Z,98888.91
2022-11-07T17:14:11.337Z,98880.06
2022-11-07T17:16:43.329Z,98881.94
2022-11-07T17:19:13.574Z,98869.25
2022-11-07T17:21:46.313Z,98874.28
2022-11-07T17:24:16.792Z,98875.31
2022-11-07T17:26:45.646Z,98885.69
2022-11-07T17:29:15.702Z,98886.97
2022-11-07T17:31:44.838Z,98893.03
2022-11-07T17:34:13.614Z,98895.59
2022-11-07T17:36:46.344Z,98904.44
2022-11-07T17:39:20.422Z,98909.22
2022-11-07T17:41:51.955Z,98912.84
2022-11-07T17:44:21.061Z,98913.28
2022-11-07T17:46:51.212Z,98910.25
2022-11-07T17:49:22.193Z,98909.66
2022-11-07T17:51:54.313Z,98912.81
2022-11-07T17:54:29.269Z,98908.84
2022-11-07T17:56:58.427Z,98909.31
2022-11-07T17:59:27.121Z,98914.56
2022-11-07T18:01:56.140Z,98912.94
2022-11-07T18:04:24.969Z,98917.59
2022-11-07T18:06:54.239Z,98913.25
2022-11-07T18:09:24.681Z,98911.88
2022-11-07T18:11:53.531Z,98909.56
2022-11-07T18:14:22.315Z,98913.16
2022-11-07T18:16:51.087Z,98906.50
2022-11-07T18:19:19.953Z,98909.66
2022-11-07T18:21:48.748Z,98905.81
2022-11-07T18:24:17.624Z,98907.44
2022-11-07T18:26:50.884Z,98906.84
2022-11-07T18:29:21.589Z,98904.06
2022-11-07T18:31:53.736Z,98902.63
2022-11-07T18:34:22.674Z,98903.25
2022-11-07T18:36:51.606Z,98907.97
2022-11-07T18:39:23.053Z,98907.16
2022-11-07T18:42:04.816Z,98905.69
2022-11-07T18:44:33.750Z,98905.91
2022-11-07T18:47:02.587Z,98906.72
2022-11-07T18:49:31.486Z,98912.53
2022-11-07T18:52:00.777Z,98913.56
2022-11-07T18:54:30.039Z,98909.16
2022-11-07T18:57:00.353Z,98912.66
2022-11-07T18:59:29.553Z,98906.25
2022-11-07T19:01:59.459Z,98908.84
2022-11-07T19:04:28.456Z,98908.47
2022-11-07T19:06:57.644Z,98911.38
2022-11-07T19:09:33.452Z,98908.56
2022-11-07T19:12:03.872Z,98909.75
2022-11-07T19:14:33.195Z,98910.19
2022-11-07T19:17:01.817Z,98915.06
2022-11-07T19:19:30.617Z,98917.84
2022-11-07T19:21:59.263Z,98915.28
2022-11-07T19:24:27.955Z,98919.91
2022-11-07T19:26:56.708Z,98915.75
2022-11-07T19:29:27.401Z,98914.56
2022-11-07T19:31:56.080Z,98916.88
2022-11-07T19:34:25.828Z,98913.41
2022-11-07T19:36:55.002Z,98911.75
2022-11-07T19:39:25.180Z,98910.72
2022-11-07T19:41:54.265Z,98919.19
2022-11-07T19:44:22.870Z,98920.09
2022-11-07T19:46:57.071Z,98921.28
2022-11-07T19:49:26.134Z,98920.69
2022-11-07T19:51:56.288Z,98918.47
2022-11-07T19:54:25.159Z,98916.84
2022-11-07T19:56:57.667Z,98914.47
2022-11-07T19:59:26.681Z,98918.66
2022-11-07T20:02:25.969Z,98914.56
2022-11-07T20:04:46.769Z,98916.00
2022-11-07T20:07:16.163Z,98918.75
2022-11-07T20:09:45.206Z,98928.34
2022-11-07T20:12:14.028Z,98922.53
2022-11-07T20:14:42.775Z,98920.47
2022-11-07T20:17:12.968Z,98922.53
2022-11-07T20:19:41.570Z,98928.41
2022-11-07T20:22:12.200Z,98931.28
2022-11-07T20:24:41.151Z,98930.28
2022-11-07T20:27:09.856Z,98936.63
2022-11-07T20:29:39.106Z,98939.63
2022-11-07T20:32:08.218Z,98945.41
2022-11-07T20:34:41.357Z,98940.16
2022-11-07T20:37:10.776Z,98945.50
2022-11-07T20:39:42.639Z,98952.16
2022-11-07T20:42:11.609Z,98948.28
2022-11-07T20:44:41.171Z,98946.00
2022-11-07T20:47:11.018Z,98950.44
2022-11-07T20:49:42.912Z,98955.34
2022-11-07T20:52:11.812Z,98950.38
2022-11-07T20:54:40.516Z,98957.00
2022-11-07T20:57:09.639Z,98956.84
2022-11-07T20:59:41.288Z,98949.06
2022-11-07T21:02:13.123Z,98953.34
2022-11-07T21:05:03.174Z,98953.44
2022-11-07T21:07:31.814Z,98959.78
2022-11-07T21:10:00.397Z,98950.97
2022-11-07T21:12:29.236Z,98955.47
2022-11-07T21:14:57.844Z,98953.44
2022-11-07T21:17:26.524Z,98955.06
2022-11-07T21:19:57.639Z,98949.25
2022-11-07T21:22:29.351Z,98957.09
2022-11-07T21:24:58.658Z,98954.66
2022-11-07T21:27:27.279Z,98949.09
2022-11-07T21:29:55.893Z,98953.44
2022-11-07T21:32:24.524Z,98953.19
2022-11-07T21:34:53.265Z,98954.59
2022-11-07T21:37:23.276Z,98961.22
2022-11-07T21:39:51.953Z,98957.09
2022-11-07T21:42:20.679Z,98964.09
2022-11-07T21:44:49.295Z,98964.91
2022-11-07T21:47:17.883Z,98962.03
2022-11-07T21:49:48.794Z,98964.69
2022-11-07T21:52:18.017Z,98964.09
2022-11-07T21:54:48.143Z,98961.28
2022-11-07T21:57:16.771Z,98959.03
2022-11-07T21:59:46.299Z,98959.38
2022-11-07T22:02:15.139Z,98955.22
2022-11-07T22:04:43.724Z,98958.72
2022-11-07T22:07:12.837Z,98962.25
2022-11-07T22:09:41.481Z,98962.69
2022-11-07T22:12:11.513Z,98961.28
2022-11-07T22:14:40.113Z,98960.59
2022-11-07T22:17:08.692Z,98958.22
2022-11-07T22:19:37.334Z,98962.00
2022-11-07T22:22:05.905Z,98956.13
2022-11-07T22:24:34.547Z,98958.19
2022-11-07T22:27:03.192Z,98964.56
2022-11-07T22:29:33.311Z,98960.69
2022-11-07T22:32:02.375Z,98957.59
2022-11-07T22:34:31.154Z,98957.22
2022-11-07T22:37:00.456Z,98959.47
2022-11-07T22:39:29.147Z,98959.59
2022-11-07T22:41:57.714Z,98960.78
2022-11-07T22:44:26.440Z,98961.72
2022-11-07T22:46:56.380Z,98956.41
2022-11-07T22:49:24.893Z,98956.00
2022-11-07T22:51:53.535Z,98951.34
2022-11-07T22:54:22.129Z,98952.97
2022-11-07T22:56:50.740Z,98959.50
2022-11-07T22:59:19.373Z,98959.13
2022-11-07T23:01:48.046Z,98957.03
2022-11-07T23:04:18.811Z,98963.81
2022-11-07T23:06:47.492Z,98957.59
2022-11-07T23:09:17.770Z,98961.72
2022-11-07T23:11:48.269Z,98960.47
2022-11-07T23:14:20.281Z,98954.66
2022-11-07T23:16:51.598Z,98955.69
2022-11-07T23:19:25.585Z,98953.59
2022-11-07T23:21:56.489Z,98954.00
2022-11-07T23:24:25.541Z,98955.41
2022-11-07T23:26:54.248Z,98950.94
2022-11-07T23:29:25.418Z,98951.16
2022-11-07T23:31:54.304Z,98948.91
2022-11-07T23:34:26.019Z,98941.25
2022-11-07T23:36:54.654Z,98945.59
2022-11-07T23:39:26.082Z,98942.34
2022-11-07T23:41:54.734Z,98939.84
2022-11-07T23:44:23.782Z,98934.13
2022-11-07T23:47:09.897Z,98946.41
2022-11-07T23:49:57.369Z,98944.72
2022-11-07T23:52:25.972Z,98943.09
2022-11-07T23:55:11.970Z,98932.00
2022-11-07T23:57:54.507Z,98935.69
